Time;durP1;ratioP1;P1;durP2;ratioP2;P2;SDS_P1;SDS_P2;PMS_P1;PMS_P2;Temp;Humidity;BMP_temperature;BMP_pressure;BME280_temperature;BME280_humidity;BME280_pressure;Samples;Min_cycle;Max_cycle;Signal;HPM_P1;HPM_P2
2024/01/09 00:00:00;;;;;;;;;;;;;;;18.12;60.55;98519.03;2078926;28;19933;-66
2024/01/09 00:01:02;;;;;;;;;;;;;;;18.13;60.53;98520.69;2080793;28;19933;-66
2024/01/09 00:02:03;;;;;;;;;;;;;;;18.13;60.69;98518.00;2079453;28;19933;-66
2024/01/09 00:03:04;;;;;;;;;;;;;;;18.12;60.49;98524.41;2082543;28;20012;-66
2024/01/09 00:04:05;;;;;;;;;;;;;;;18.12;60.37;98535.16;2081304;28;19940;-65
2024/01/09 00:05:07;;;;;;;;;;;;;;;18.12;60.44;98529.78;2080832;28;19960;-66
2024/01/09 00:06:12;;;;;;;;;;;;;;;18.13;60.33;98531.44;2083723;28;19932;-66
2024/01/09 00:07:14;;;;;;;;;;;;;;;18.11;60.56;98523.59;2075484;28;19929;-66
2024/01/09 00:08:15;;;;;;;;;;;;;;;18.12;60.32;98524.41;2077381;28;20380;-66
2024/01/09 00:09:16;;;;;;;;;;;;;;;18.12;60.37;98532.47;2080166;28;19976;-66
2024/01/09 00:10:17;;;;;;;;;;;;;;;18.09;60.74;98526.47;2079666;28;19925;-66
2024/01/09 00:11:18;;;;;;;;;;;;;;;18.11;60.34;98528.09;2077326;28;20035;-66
2024/01/09 00:12:20;;;;;;;;;;;;;;;18.08;60.48;98526.69;2079257;28;20653;-66
2024/01/09 00:13:22;;;;;;;;;;;;;;;18.07;60.58;98527.69;2081752;28;20364;-66
2024/01/09 00:14:22;;;;;;;;;;;;;;;18.05;60.71;98527.06;2082475;28;19936;-66
2024/01/09 00:15:24;;;;;;;;;;;;;;;18.05;60.65;98529.75;2078802;28;19972;-65
2024/01/09 00:16:25;;;;;;;;;;;;;;;18.06;60.60;98526.06;2079937;28;19974;-66
2024/01/09 00:17:26;;;;;;;;;;;;;;;18.02;60.37;98525.59;2081511;28;19986;-65
2024/01/09 00:18:27;;;;;;;;;;;;;;;18.02;60.47;98519.41;2080422;28;19954;-66
2024/01/09 00:19:27;;;;;;;;;;;;;;;18.02;60.48;98525.59;2080804;28;20036;-65
2024/01/09 00:20:29;;;;;;;;;;;;;;;18.02;60.30;98527.47;2082489;28;19972;-66
2024/01/09 00:21:29;;;;;;;;;;;;;;;17.99;60.40;98517.97;2080808;28;19940;-66
2024/01/09 00:22:31;;;;;;;;;;;;;;;17.99;60.48;98520.66;2081669;28;19968;-66
2024/01/09 00:23:32;;;;;;;;;;;;;;;17.99;60.54;98526.00;2078473;28;19929;-67
2024/01/09 00:24:33;;;;;;;;;;;;;;;17.99;60.59;98520.66;2078282;28;19999;-66
2024/01/09 00:25:34;;;;;;;;;;;;;;;17.99;60.54;98525.19;2082709;28;19929;-65
2024/01/09 00:26:39;;;;;;;;;;;;;;;17.97;60.45;98520.03;2079642;28;19929;-66
2024/01/09 00:27:43;;;;;;;;;;;;;;;17.96;60.42;98521.06;2079201;28;20331;-66
2024/01/09 00:28:43;;;;;;;;;;;;;;;17.97;60.36;98517.38;2080797;28;19976;-66
2024/01/09 00:29:45;;;;;;;;;;;;;;;17.94;60.67;98522.28;2078886;28;19939;-66
2024/01/09 00:30:46;;;;;;;;;;;;;;;17.93;60.74;98523.31;2080808;28;19955;-66
2024/01/09 00:31:47;;;;;;;;;;;;;;;17.92;60.52;98527.88;2078318;28;20522;-66
2024/01/09 00:32:49;;;;;;;;;;;;;;;17.91;60.48;98534.25;2080112;28;19925;-66
2024/01/09 00:33:51;;;;;;;;;;;;;;;17.88;60.70;98528.47;2080869;28;19925;-66
2024/01/09 00:34:51;;;;;;;;;;;;;;;17.85;60.90;98535.06;2078765;28;19932;-66
2024/01/09 00:35:53;;;;;;;;;;;;;;;17.83;60.80;98529.91;2080654;28;19940;-66
2024/01/09 00:36:53;;;;;;;;;;;;;;;17.84;60.72;98539.59;2080254;28;19937;-66
2024/01/09 00:37:54;;;;;;;;;;;;;;;17.84;60.89;98538.78;2083141;28;19957;-66
2024/01/09 00:38:56;;;;;;;;;;;;;;;17.84;60.51;98530.72;2078880;28;19932;-65
2024/01/09 00:39:56;;;;;;;;;;;;;;;17.82;60.72;98538.97;2077281;28;20289;-66
2024/01/09 00:40:57;;;;;;;;;;;;;;;17.79;60.71;98541.22;2080697;28;20038;-66
2024/01/09 00:41:58;;;;;;;;;;;;;;;17.76;60.93;98537.06;2079345;28;19929;-65
2024/01/09 00:43:00;;;;;;;;;;;;;;;17.73;61.14;98536.63;2081133;28;19956;-66
2024/01/09 00:44:02;;;;;;;;;;;;;;;17.72;60.98;98543.00;2079917;28;19964;-66
2024/01/09 00:45:04;;;;;;;;;;;;;;;17.70;61.12;98531.69;2081170;28;19932;-66
2024/01/09 00:46:05;;;;;;;;;;;;;;;17.66;61.05;98531.22;2081693;28;20528;-66
2024/01/09 00:47:06;;;;;;;;;;;;;;;17.62;61.36;98533.50;2085302;28;19949;-66
2024/01/09 00:48:08;;;;;;;;;;;;;;;17.61;61.26;98533.72;2082156;28;20002;-66
2024/01/09 00:49:08;;;;;;;;;;;;;;;17.61;61.28;98531.84;2082892;28;19936;-66
2024/01/09 00:50:10;;;;;;;;;;;;;;;17.63;61.31;98540.53;2083397;28;20015;-66
2024/01/09 00:51:11;;;;;;;;;;;;;;;17.61;61.03;98534.53;2081431;28;20513;-65
2024/01/09 00:52:11;;;;;;;;;;;;;;;17.60;61.11;98540.91;2083305;28;19968;-66
2024/01/09 00:53:13;;;;;;;;;;;;;;;17.62;61.15;98541.53;2082316;28;20438;-66
2024/01/09 00:54:14;;;;;;;;;;;;;;;17.59;61.47;98541.13;2083124;28;19932;-66
2024/01/09 00:55:15;;;;;;;;;;;;;;;17.58;61.20;98539.47;2082075;28;19978;-65
2024/01/09 00:56:17;;;;;;;;;;;;;;;17.58;61.38;98540.28;2081318;28;20549;-65
2024/01/09 00:57:17;;;;;;;;;;;;;;;17.55;61.42;98546.06;2082042;28;19931;-66
2024/01/09 00:58:19;;;;;;;;;;;;;;;17.55;61.16;98543.38;2082332;28;19992;-66
2024/01/09 00:59:21;;;;;;;;;;;;;;;17.57;61.38;98545.84;2081745;28;19924;-66
2024/01/09 01:00:22;;;;;;;;;;;;;;;17.54;61.23;98544.38;2080584;28;19947;-65
2024/01/09 01:01:23;;;;;;;;;;;;;;;17.55;61.42;98550.56;2083325;28;20434;-66
2024/01/09 01:02:24;;;;;;;;;;;;;;;17.53;61.12;98548.09;2082788;28;19925;-66
2024/01/09 01:03:25;;;;;;;;;;;;;;;17.52;61.37;98551.78;2082574;28;19929;-66
2024/01/09 01:04:26;;;;;;;;;;;;;;;17.54;61.10;98544.38;2083203;28;19924;-66
2024/01/09 01:05:28;;;;;;;;;;;;;;;17.51;61.19;98543.97;2086345;28;20364;-65
2024/01/09 01:06:28;;;;;;;;;;;;;;;17.52;61.29;98546.44;2094925;28;19964;-66
2024/01/09 01:07:30;;;;;;;;;;;;;;;17.51;61.09;98544.78;2089660;28;19933;-66
2024/01/09 01:08:31;;;;;;;;;;;;;;;17.52;61.30;98535.69;2092355;28;19931;-65
2024/01/09 01:09:32;;;;;;;;;;;;;;;17.49;61.12;98540.63;2091403;28;20007;-66
2024/01/09 01:10:33;;;;;;;;;;;;;;;17.43;61.18;98543.09;2092067;28;19925;-66
2024/01/09 01:11:34;;;;;;;;;;;;;;;17.42;61.37;98541.44;2087604;28;20015;-66
2024/01/09 01:12:35;;;;;;;;;;;;;;;17.44;61.22;98543.94;2088413;28;20313;-66
2024/01/09 01:13:37;;;;;;;;;;;;;;;17.43;61.34;98542.25;2089230;28;19925;-65
2024/01/09 01:14:39;;;;;;;;;;;;;;;17.44;61.40;98546.63;2088886;28;19931;-66
2024/01/09 01:15:39;;;;;;;;;;;;;;;17.40;61.22;98548.03;2090887;28;19928;-66
2024/01/09 01:16:40;;;;;;;;;;;;;;;17.43;61.40;98542.25;2092325;28;20089;-65
2024/01/09 01:17:41;;;;;;;;;;;;;;;17.43;61.13;98548.44;2088999;28;19978;-66
2024/01/09 01:18:42;;;;;;;;;;;;;;;17.43;61.13;98550.31;2091046;28;19928;-66
2024/01/09 01:19:43;;;;;;;;;;;;;;;17.39;61.56;98551.75;2090605;28;19931;-66
2024/01/09 01:20:44;;;;;;;;;;;;;;;17.41;61.47;98549.66;2089121;28;19932;-66
2024/01/09 01:21:45;;;;;;;;;;;;;;;17.43;61.20;98553.81;2090057;28;20405;-66
2024/01/09 01:22:45;;;;;;;;;;;;;;;17.42;61.39;98556.72;2090317;28;20015;-66
2024/01/09 01:23:47;;;;;;;;;;;;;;;17.41;61.32;98549.66;2087060;28;20418;-66
2024/01/09 01:24:48;;;;;;;;;;;;;;;17.36;61.38;98552.97;2090827;28;19925;-66
2024/01/09 01:25:49;;;;;;;;;;;;;;;17.38;61.14;98560.78;2090497;28;19925;-66
2024/01/09 01:26:50;;;;;;;;;;;;;;;17.36;61.24;98557.50;2089845;28;20310;-66
2024/01/09 01:27:51;;;;;;;;;;;;;;;17.33;61.42;98556.03;2091047;28;20011;-66
2024/01/09 01:28:53;;;;;;;;;;;;;;;17.32;61.38;98561.59;2088349;28;20299;-66
2024/01/09 01:29:56;;;;;;;;;;;;;;;17.32;61.50;98565.09;2090527;28;19936;-66
2024/01/09 01:30:57;;;;;;;;;;;;;;;17.34;61.40;98559.53;2092653;28;19925;-67
2024/01/09 01:31:58;;;;;;;;;;;;;;;17.30;61.50;98561.81;2088639;28;20123;-67
2024/01/09 01:32:59;;;;;;;;;;;;;;;17.32;61.29;98567.78;2089113;28;19962;-67
2024/01/09 01:34:00;;;;;;;;;;;;;;;17.26;61.49;98570.41;2089514;28;19968;-66
2024/01/09 01:35:01;;;;;;;;;;;;;;;17.31;61.22;98570.66;2089591;28;20541;-66
2024/01/09 01:36:01;;;;;;;;;;;;;;;17.31;61.34;98567.97;2088516;28;19977;-67
2024/01/09 01:37:03;;;;;;;;;;;;;;;17.26;61.29;98573.91;2089773;28;20474;-66
2024/01/09 01:38:04;;;;;;;;;;;;;;;17.30;61.28;98574.34;2088177;28;19932;-66
2024/01/09 01:39:05;;;;;;;;;;;;;;;17.28;61.35;98585.28;2089470;28;20407;-66
2024/01/09 01:40:07;;;;;;;;;;;;;;;17.31;61.32;98581.38;2087996;28;19928;-66
2024/01/09 01:41:08;;;;;;;;;;;;;;;17.26;61.49;98587.31;2086406;28;19932;-66
2024/01/09 01:42:09;;;;;;;;;;;;;;;17.27;61.31;98590.81;2088705;28;19955;-66
2024/01/09 01:43:10;;;;;;;;;;;;;;;17.29;61.26;98586.09;2092916;28;20004;-66
2024/01/09 01:44:15;;;;;;;;;;;;;;;17.22;61.59;98594.13;2086490;28;19951;-65
2024/01/09 01:45:17;;;;;;;;;;;;;;;17.24;61.49;98591.22;2090668;28;19929;-66
2024/01/09 01:46:18;;;;;;;;;;;;;;;17.24;61.32;98592.03;2089439;28;19959;-66
2024/01/09 01:47:19;;;;;;;;;;;;;;;17.27;61.21;98596.19;2087345;28;20059;-66
2024/01/09 01:48:20;;;;;;;;;;;;;;;17.25;61.21;98584.84;2088227;28;19986;-66
2024/01/09 01:49:21;;;;;;;;;;;;;;;17.22;61.25;98594.13;2086723;28;20754;-66
2024/01/09 01:50:23;;;;;;;;;;;;;;;17.23;61.45;98593.09;2089634;28;20332;-66
2024/01/09 01:51:23;;;;;;;;;;;;;;;17.22;61.23;98591.44;2092352;28;19924;-66
2024/01/09 01:52:25;;;;;;;;;;;;;;;17.22;61.41;98593.25;2089883;28;19932;-66
2024/01/09 01:53:26;;;;;;;;;;;;;;;17.21;61.43;98595.13;2091917;28;19928;-66
2024/01/09 01:54:29;;;;;;;;;;;;;;;17.15;61.44;98594.03;2092833;28;20038;-66
2024/01/09 01:55:30;;;;;;;;;;;;;;;17.19;61.25;98591.84;2089356;28;20392;-66
2024/01/09 01:56:31;;;;;;;;;;;;;;;17.22;61.17;98598.63;2088749;28;19964;-66
2024/01/09 01:57:32;;;;;;;;;;;;;;;17.21;61.13;98595.13;2087505;28;19933;-66
2024/01/09 01:58:34;;;;;;;;;;;;;;;17.20;61.27;98591.63;2089116;28;20504;-66
2024/01/09 01:59:39;;;;;;;;;;;;;;;17.15;61.41;98593.22;2087670;28;19935;-66
2024/01/09 02:00:41;;;;;;;;;;;;;;;17.13;61.31;98598.78;2089350;28;19960;-66
2024/01/09 02:01:43;;;;;;;;;;;;;;;17.16;61.25;98595.72;2091252;28;19925;-66
2024/01/09 02:02:44;;;;;;;;;;;;;;;17.18;61.17;98598.19;2090252;28;20396;-67
2024/01/09 02:03:47;;;;;;;;;;;;;;;17.16;61.22;98601.09;2089454;28;20379;-66
2024/01/09 02:04:48;;;;;;;;;;;;;;;17.13;61.36;98596.13;2089863;28;19932;-66
2024/01/09 02:05:51;;;;;;;;;;;;;;;17.13;61.36;98597.94;2089563;28;20032;-66
2024/01/09 02:06:51;;;;;;;;;;;;;;;17.10;61.33;98593.81;2091551;28;19924;-66
2024/01/09 02:07:53;;;;;;;;;;;;;;;17.11;61.25;98594.66;2091630;28;20020;-66
2024/01/09 02:08:55;;;;;;;;;;;;;;;17.11;61.20;98582.06;2089871;28;20419;-66
2024/01/09 02:09:55;;;;;;;;;;;;;;;17.17;61.30;98593.88;2089541;28;19951;-67
2024/01/09 02:10:57;;;;;;;;;;;;;;;17.13;61.41;98596.13;2089951;28;19948;-66
2024/01/09 02:11:58;;;;;;;;;;;;;;;17.13;61.15;98590.75;2087641;28;20423;-67
2024/01/09 02:12:59;;;;;;;;;;;;;;;17.12;61.07;98590.94;2089720;28;19956;-66
2024/01/09 02:14:00;;;;;;;;;;;;;;;17.11;61.17;98582.06;2089754;28;19932;-66
2024/01/09 02:15:03;;;;;;;;;;;;;;;17.08;61.38;98590.50;2088749;28;19979;-66
2024/01/09 02:16:04;;;;;;;;;;;;;;;17.05;61.47;98585.53;2091702;28;19983;-66
2024/01/09 02:17:06;;;;;;;;;;;;;;;17.01;61.34;98586.13;2091154;28;19936;-66
2024/01/09 02:18:06;;;;;;;;;;;;;;;17.03;61.49;98584.91;2087884;28;19932;-66
2024/01/09 02:19:08;;;;;;;;;;;;;;;17.03;61.52;98589.44;2093506;28;20043;-66
2024/01/09 02:20:09;;;;;;;;;;;;;;;17.03;61.39;98584.91;2088107;28;19929;-66
2024/01/09 02:21:10;;;;;;;;;;;;;;;17.04;61.21;98581.19;2086306;28;20023;-67
2024/01/09 02:22:13;;;;;;;;;;;;;;;17.01;61.49;98586.13;2089091;28;19928;-66
2024/01/09 02:23:15;;;;;;;;;;;;;;;17.02;61.32;98588.63;2089691;28;19940;-67
2024/01/09 02:24:15;;;;;;;;;;;;;;;17.00;61.41;98590.66;2089056;28;19929;-66
2024/01/09 02:25:17;;;;;;;;;;;;;;;16.95;61.50;98593.91;2090782;28;19933;-66
2024/01/09 02:26:20;;;;;;;;;;;;;;;16.92;61.73;98605.00;2089263;28;20291;-66
2024/01/09 02:27:27;;;;;;;;;;;;;;;16.91;61.79;98605.19;2092297;28;19925;-66
2024/01/09 02:28:30;;;;;;;;;;;;;;;16.92;61.55;98598.81;2088430;28;19959;-66
2024/01/09 02:29:32;;;;;;;;;;;;;;;16.90;61.61;98600.88;2088588;28;19933;-66
2024/01/09 02:30:36;;;;;;;;;;;;;;;16.84;61.66;98599.78;2087911;28;20012;-66
2024/01/09 02:31:36;;;;;;;;;;;;;;;16.82;61.85;98595.63;2091012;28;19959;-67
2024/01/09 02:32:38;;;;;;;;;;;;;;;16.83;61.76;98602.66;2087208;28;20458;-67
2024/01/09 02:33:39;;;;;;;;;;;;;;;16.84;61.84;98602.47;2089178;28;20023;-67
2024/01/09 02:34:42;;;;;;;;;;;;;;;16.84;61.79;98602.47;2087808;28;19978;-66
2024/01/09 02:35:43;;;;;;;;;;;;;;;16.84;61.89;98597.09;2088502;28;19932;-67
2024/01/09 02:36:45;;;;;;;;;;;;;;;16.82;61.72;98606.34;2090628;28;20023;-67
2024/01/09 02:37:46;;;;;;;;;;;;;;;16.80;61.81;98605.72;2085823;28;19986;-66
2024/01/09 02:38:48;;;;;;;;;;;;;;;16.78;61.82;98605.91;2086888;28;19974;-67
2024/01/09 02:39:49;;;;;;;;;;;;;;;16.81;61.70;98602.03;2092821;28;19936;-67
2024/01/09 02:40:50;;;;;;;;;;;;;;;16.79;62.00;98612.91;2088669;28;20391;-67
2024/01/09 02:41:51;;;;;;;;;;;;;;;16.74;61.94;98602.78;2086322;28;19925;-67
2024/01/09 02:42:53;;;;;;;;;;;;;;;16.74;61.91;98610.81;2087370;28;20063;-67
2024/01/09 02:43:53;;;;;;;;;;;;;;;16.79;61.89;98604.88;2090050;28;19928;-67
2024/01/09 02:44:55;;;;;;;;;;;;;;;16.77;61.91;98614.97;2091464;28;19964;-67
2024/01/09 02:45:57;;;;;;;;;;;;;;;16.80;61.91;98621.78;2087352;28;19940;-66
2024/01/09 02:46:58;;;;;;;;;;;;;;;16.79;61.74;98617.47;2089601;28;19928;-66
2024/01/09 02:47:59;;;;;;;;;;;;;;;16.74;61.74;98608.13;2087343;28;19925;-66
2024/01/09 02:49:01;;;;;;;;;;;;;;;16.71;61.79;98616.53;2090968;28;19924;-66
2024/01/09 02:50:01;;;;;;;;;;;;;;;16.74;61.92;98612.63;2087953;28;19932;-66
2024/01/09 02:51:03;;;;;;;;;;;;;;;16.78;61.76;98619.31;2089410;28;19998;-66
2024/01/09 02:52:04;;;;;;;;;;;;;;;16.75;61.87;98619.66;2089325;28;19932;-66
2024/01/09 02:53:05;;;;;;;;;;;;;;;16.75;61.80;98622.34;2087516;28;19966;-68
2024/01/09 02:54:06;;;;;;;;;;;;;;;16.69;62.02;98618.59;2087996;28;19931;-66
2024/01/09 02:55:08;;;;;;;;;;;;;;;16.67;61.92;98625.16;2090367;28;19925;-66
2024/01/09 02:56:08;;;;;;;;;;;;;;;16.71;61.95;98629.09;2091571;28;19928;-66
2024/01/09 02:57:09;;;;;;;;;;;;;;;16.69;61.85;98623.94;2090479;28;19967;-67
2024/01/09 02:58:11;;;;;;;;;;;;;;;16.69;61.83;98620.44;2088289;28;19990;-66
2024/01/09 02:59:12;;;;;;;;;;;;;;;16.68;61.82;98630.28;2087108;28;19928;-66
2024/01/09 03:00:13;;;;;;;;;;;;;;;16.67;61.84;98631.31;2085297;28;19983;-66
2024/01/09 03:01:15;;;;;;;;;;;;;;;16.62;62.07;98625.72;2089608;28;19935;-66
2024/01/09 03:02:17;;;;;;;;;;;;;;;16.65;61.91;98628.00;2089056;28;20391;-66
2024/01/09 03:03:18;;;;;;;;;;;;;;;16.63;62.00;98632.75;2089799;28;19925;-66
2024/01/09 03:04:19;;;;;;;;;;;;;;;16.63;61.85;98621.19;2089452;28;19971;-66
2024/01/09 03:05:20;;;;;;;;;;;;;;;16.67;61.88;98623.28;2089581;28;19966;-66
2024/01/09 03:06:21;;;;;;;;;;;;;;;16.65;61.96;98611.94;2090136;28;20005;-66
2024/01/09 03:07:22;;;;;;;;;;;;;;;16.69;61.93;98612.41;2090296;28;19924;-66
2024/01/09 03:08:24;;;;;;;;;;;;;;;16.69;61.68;98615.91;2091110;28;19924;-66
2024/01/09 03:09:24;;;;;;;;;;;;;;;16.71;61.77;98613.84;2087373;28;19932;-66
2024/01/09 03:10:26;;;;;;;;;;;;;;;16.69;61.84;98610.56;2087544;28;19987;-66
2024/01/09 03:11:26;;;;;;;;;;;;;;;16.68;61.72;98611.56;2090892;28;19932;-66
2024/01/09 03:12:28;;;;;;;;;;;;;;;16.71;61.66;98610.34;2088626;28;19975;-66
2024/01/09 03:13:28;;;;;;;;;;;;;;;16.70;61.65;98612.19;2088694;28;19925;-66
2024/01/09 03:14:30;;;;;;;;;;;;;;;16.73;61.54;98602.94;2090179;28;20083;-66
2024/01/09 03:15:31;;;;;;;;;;;;;;;16.70;61.47;98601.47;2088331;28;19924;-67
2024/01/09 03:16:34;;;;;;;;;;;;;;;16.69;61.64;98612.41;2089056;28;19959;-66
2024/01/09 03:17:34;;;;;;;;;;;;;;;16.68;61.66;98603.50;2089797;28;20501;-66
2024/01/09 03:18:36;;;;;;;;;;;;;;;16.67;61.63;98607.22;2089765;28;19975;-66
2024/01/09 03:19:37;;;;;;;;;;;;;;;16.65;61.71;98608.44;2089830;28;19925;-66
2024/01/09 03:20:38;;;;;;;;;;;;;;;16.70;61.46;98600.66;2090464;28;19956;-66
2024/01/09 03:21:39;;;;;;;;;;;;;;;16.71;61.50;98603.13;2089573;28;19924;-66
2024/01/09 03:22:40;;;;;;;;;;;;;;;16.66;61.62;98599.38;2089141;28;20015;-66
2024/01/09 03:23:41;;;;;;;;;;;;;;;16.65;61.50;98600.41;2088383;28;20539;-66
2024/01/09 03:24:42;;;;;;;;;;;;;;;16.66;61.31;98600.22;2092392;28;19959;-66
2024/01/09 03:25:43;;;;;;;;;;;;;;;16.66;61.50;98600.22;2088925;28;19935;-66
2024/01/09 03:26:45;;;;;;;;;;;;;;;16.65;61.59;98598.53;2089246;28;19963;-66
2024/01/09 03:27:45;;;;;;;;;;;;;;;16.67;61.41;98599.19;2086920;28;19929;-66
2024/01/09 03:28:46;;;;;;;;;;;;;;;16.61;61.39;98596.47;2088486;28;19964;-66
2024/01/09 03:29:47;;;;;;;;;;;;;;;16.60;61.63;98600.97;2087466;28;19932;-66
2024/01/09 03:30:48;;;;;;;;;;;;;;;16.53;61.89;98598.22;2087251;28;19935;-66
2024/01/09 03:31:51;;;;;;;;;;;;;;;16.56;61.77;98599.69;2089707;28;20047;-66
2024/01/09 03:32:51;;;;;;;;;;;;;;;16.59;61.68;98604.66;2090281;28;19971;-66
2024/01/09 03:33:52;;;;;;;;;;;;;;;16.56;61.74;98610.41;2087133;28;19925;-66
2024/01/09 03:34:54;;;;;;;;;;;;;;;16.58;61.58;98607.56;2089809;28;19928;-66
2024/01/09 03:35:54;;;;;;;;;;;;;;;16.56;61.72;98612.25;2086917;28;19933;-66
2024/01/09 03:36:56;;;;;;;;;;;;;;;16.56;61.64;98613.09;2090363;28;19964;-66
2024/01/09 03:37:56;;;;;;;;;;;;;;;16.54;61.82;98607.09;2087243;28;20999;-66
2024/01/09 03:38:58;;;;;;;;;;;;;;;16.55;61.73;98614.13;2088162;28;19933;-66
2024/01/09 03:39:58;;;;;;;;;;;;;;;16.57;61.47;98611.22;2088333;28;19935;-66
2024/01/09 03:41:00;;;;;;;;;;;;;;;16.55;61.51;98616.78;2089063;28;19971;-66
2024/01/09 03:42:01;;;;;;;;;;;;;;;16.50;61.83;98622.72;2090417;28;19924;-66
2024/01/09 03:43:02;;;;;;;;;;;;;;;16.52;61.76;98612.66;2086337;28;19960;-66
2024/01/09 03:44:03;;;;;;;;;;;;;;;16.51;61.77;98619.00;2087669;28;19983;-66
2024/01/09 03:45:06;;;;;;;;;;;;;;;16.52;61.66;98622.53;2087928;28;19937;-66
2024/01/09 03:46:07;;;;;;;;;;;;;;;16.52;61.64;98614.50;2089084;28;19924;-66
2024/01/09 03:47:10;;;;;;;;;;;;;;;16.53;61.75;98616.16;2088893;28;20366;-66
2024/01/09 03:48:10;;;;;;;;;;;;;;;16.51;61.50;98618.19;2086570;28;20019;-66
2024/01/09 03:49:12;;;;;;;;;;;;;;;16.52;61.61;98622.53;2090603;28;19924;-68
2024/01/09 03:50:13;;;;;;;;;;;;;;;16.53;61.53;98613.47;2086526;28;19933;-66
2024/01/09 03:51:14;;;;;;;;;;;;;;;16.50;61.65;98617.34;2088466;28;19929;-66
2024/01/09 03:52:15;;;;;;;;;;;;;;;16.49;61.58;98606.81;2091233;28;19935;-66
2024/01/09 03:53:16;;;;;;;;;;;;;;;16.47;61.54;98611.56;2086856;28;19975;-66
2024/01/09 03:54:17;;;;;;;;;;;;;;;16.46;61.77;98615.25;2088430;28;19932;-66
2024/01/09 03:55:19;;;;;;;;;;;;;;;16.47;61.66;98617.75;2088295;28;20484;-66
2024/01/09 03:56:20;;;;;;;;;;;;;;;16.45;61.57;98616.28;2088494;28;19925;-66
2024/01/09 03:57:21;;;;;;;;;;;;;;;16.43;61.92;98610.28;2088938;28;19932;-66
2024/01/09 03:58:22;;;;;;;;;;;;;;;16.44;61.91;98611.94;2088702;28;19924;-66
2024/01/09 03:59:24;;;;;;;;;;;;;;;16.43;61.68;98623.66;2089448;28;19974;-66
2024/01/09 04:00:24;;;;;;;;;;;;;;;16.44;61.66;98617.31;2088607;28;19929;-66
2024/01/09 04:01:25;;;;;;;;;;;;;;;16.46;61.70;98621.41;2089081;28;20007;-65
2024/01/09 04:02:28;;;;;;;;;;;;;;;16.46;61.60;98621.41;2089063;28;20008;-66
2024/01/09 04:03:29;;;;;;;;;;;;;;;16.47;61.61;98627.63;2089692;28;19935;-66
2024/01/09 04:04:29;;;;;;;;;;;;;;;16.42;61.74;98624.69;2090090;28;20399;-66
2024/01/09 04:05:31;;;;;;;;;;;;;;;16.38;61.84;98618.03;2090558;28;19932;-66
2024/01/09 04:06:32;;;;;;;;;;;;;;;16.41;61.71;98629.22;2087407;28;19939;-66
2024/01/09 04:07:34;;;;;;;;;;;;;;;16.41;61.63;98623.00;2086649;28;19933;-66
2024/01/09 04:08:35;;;;;;;;;;;;;;;16.40;61.70;98626.72;2089218;28;19932;-66
2024/01/09 04:09:37;;;;;;;;;;;;;;;16.44;61.73;98628.84;2089364;28;20015;-66
2024/01/09 04:10:38;;;;;;;;;;;;;;;16.46;61.65;98637.47;2087224;28;20311;-66
2024/01/09 04:11:44;;;;;;;;;;;;;;;16.50;61.54;98646.00;2088109;28;19968;-66
2024/01/09 04:12:44;;;;;;;;;;;;;;;16.53;61.51;98642.94;2088567;28;20670;-65
2024/01/09 04:13:46;;;;;;;;;;;;;;;16.59;61.21;98642.16;2088515;28;19933;-66
2024/01/09 04:14:46;;;;;;;;;;;;;;;16.70;61.20;98646.19;2087940;28;19978;-64
2024/01/09 04:15:48;;;;;;;;;;;;;;;16.77;60.87;98648.94;2088730;28;20537;-66
2024/01/09 04:16:49;;;;;;;;;;;;;;;16.81;60.63;98644.88;2090109;28;19933;-66
2024/01/09 04:17:51;;;;;;;;;;;;;;;16.88;60.66;98638.56;2089198;28;20407;-66
2024/01/09 04:18:52;;;;;;;;;;;;;;;16.93;60.64;98646.84;2087423;28;19989;-66
2024/01/09 04:19:54;;;;;;;;;;;;;;;16.98;60.62;98641.75;2086690;28;19955;-66
2024/01/09 04:20:55;;;;;;;;;;;;;;;17.03;60.46;98645.69;2088978;28;19936;-66
2024/01/09 04:21:56;;;;;;;;;;;;;;;17.05;60.39;98639.13;2090888;28;19935;-66
2024/01/09 04:22:56;;;;;;;;;;;;;;;17.09;60.43;98647.59;2090891;28;20015;-66
2024/01/09 04:23:58;;;;;;;;;;;;;;;17.11;60.49;98643.72;2088977;28;20019;-66
2024/01/09 04:24:58;;;;;;;;;;;;;;;17.16;60.43;98648.47;2090840;28;19932;-66
2024/01/09 04:26:00;;;;;;;;;;;;;;;17.18;60.56;98647.25;2090826;28;19972;-66
2024/01/09 04:27:02;;;;;;;;;;;;;;;17.20;60.21;98650.59;2090910;28;19928;-66
2024/01/09 04:28:03;;;;;;;;;;;;;;;17.24;60.16;98647.50;2088604;28;21840;-66
2024/01/09 04:29:04;;;;;;;;;;;;;;;17.27;60.23;98653.31;2090564;28;19929;-66
2024/01/09 04:30:06;;;;;;;;;;;;;;;17.29;60.38;98653.13;2089260;28;20733;-66
2024/01/09 04:31:07;;;;;;;;;;;;;;;17.31;60.20;98651.91;2089083;28;19981;-66
2024/01/09 04:32:08;;;;;;;;;;;;;;;17.35;60.20;98646.97;2087805;28;20127;-66
2024/01/09 04:33:10;;;;;;;;;;;;;;;17.37;60.46;98653.81;2091972;28;19928;-66
2024/01/09 04:34:12;;;;;;;;;;;;;;;17.40;60.17;98655.28;2089399;28;19924;-66
2024/01/09 04:35:13;;;;;;;;;;;;;;;17.41;60.36;98659.59;2091995;28;19932;-66
2024/01/09 04:36:15;;;;;;;;;;;;;;;17.43;60.25;98652.19;2089697;28;19932;-66
2024/01/09 04:37:16;;;;;;;;;;;;;;;17.46;60.21;98654.47;2088143;28;19932;-66
2024/01/09 04:38:18;;;;;;;;;;;;;;;17.49;60.13;98658.63;2086408;28;19936;-66
2024/01/09 04:39:18;;;;;;;;;;;;;;;17.51;60.29;98657.41;2088074;28;19924;-66
2024/01/09 04:40:20;;;;;;;;;;;;;;;17.52;59.99;98655.56;2088769;28;20027;-66
2024/01/09 04:41:20;;;;;;;;;;;;;;;17.55;60.12;98658.69;2084794;28;20321;-66
2024/01/09 04:42:21;;;;;;;;;;;;;;;17.56;60.38;98665.69;2089172;28;19983;-66
2024/01/09 04:43:23;;;;;;;;;;;;;;;17.58;60.15;98660.97;2087300;28;19924;-66
2024/01/09 04:44:23;;;;;;;;;;;;;;;17.62;60.04;98664.09;2082360;28;19929;-66
2024/01/09 04:45:25;;;;;;;;;;;;;;;17.62;59.97;98664.91;2089563;28;20032;-66
2024/01/09 04:46:25;;;;;;;;;;;;;;;17.64;59.99;98665.56;2088333;28;19940;-66
2024/01/09 04:47:27;;;;;;;;;;;;;;;17.67;60.10;98666.19;2087919;28;20420;-66
2024/01/09 04:48:29;;;;;;;;;;;;;;;17.69;60.25;98664.13;2085161;28;19932;-66
2024/01/09 04:49:31;;;;;;;;;;;;;;;17.71;60.09;98664.75;2089548;28;19976;-66
2024/01/09 04:50:31;;;;;;;;;;;;;;;17.73;60.18;98668.09;2085471;28;20307;-66
2024/01/09 04:51:33;;;;;;;;;;;;;;;17.76;60.18;98673.06;2090526;28;19924;-66
2024/01/09 04:52:36;;;;;;;;;;;;;;;17.77;60.11;98672.84;2085142;28;19955;-66
2024/01/09 04:53:38;;;;;;;;;;;;;;;17.79;60.20;98672.69;2086041;28;19986;-66
2024/01/09 04:54:38;;;;;;;;;;;;;;;17.82;60.27;98674.97;2087879;28;19924;-66
2024/01/09 04:55:40;;;;;;;;;;;;;;;17.83;60.16;98682.00;2089845;28;19970;-66
2024/01/09 04:56:41;;;;;;;;;;;;;;;17.86;60.18;98681.63;2087637;28;19925;-66
2024/01/09 04:57:42;;;;;;;;;;;;;;;17.88;60.08;98684.09;2089889;28;20022;-66
2024/01/09 04:58:43;;;;;;;;;;;;;;;17.90;59.82;98682.03;2085392;28;19943;-66
2024/01/09 04:59:44;;;;;;;;;;;;;;;17.91;59.91;98681.81;2087311;28;19979;-66
2024/01/09 05:00:46;;;;;;;;;;;;;;;17.93;59.95;98690.50;2089193;28;19924;-66
2024/01/09 05:01:49;;;;;;;;;;;;;;;17.95;60.08;98695.69;2087638;28;20301;-66
2024/01/09 05:02:52;;;;;;;;;;;;;;;17.96;59.85;98698.16;2083530;28;19925;-66
2024/01/09 05:03:55;;;;;;;;;;;;;;;17.97;60.04;98702.53;2089203;28;19924;-66
2024/01/09 05:04:56;;;;;;;;;;;;;;;17.98;60.05;98701.47;2088563;28;19963;-66
2024/01/09 05:05:58;;;;;;;;;;;;;;;18.00;60.01;98701.31;2089511;28;19929;-66
2024/01/09 05:06:58;;;;;;;;;;;;;;;18.00;60.08;98696.75;2088577;28;19928;-66
2024/01/09 05:08:00;;;;;;;;;;;;;;;18.03;59.77;98703.59;2088643;28;20667;-66
2024/01/09 05:09:00;;;;;;;;;;;;;;;18.03;59.94;98699.03;2084984;28;20403;-66
2024/01/09 05:10:03;;;;;;;;;;;;;;;18.03;59.93;98691.00;2086557;28;19925;-66
2024/01/09 05:11:04;;;;;;;;;;;;;;;18.05;59.84;98686.25;2086313;28;21598;-66
2024/01/09 05:12:06;;;;;;;;;;;;;;;18.06;59.98;98692.44;2086896;28;20055;-66
2024/01/09 05:13:07;;;;;;;;;;;;;;;18.06;59.93;98687.91;2087547;28;19944;-66
2024/01/09 05:14:07;;;;;;;;;;;;;;;18.06;59.82;98693.28;2086441;28;20447;-66
2024/01/09 05:15:09;;;;;;;;;;;;;;;18.08;59.95;98693.09;2084493;28;19960;-66
2024/01/09 05:16:10;;;;;;;;;;;;;;;18.08;60.09;98685.88;2085565;28;19943;-66
2024/01/09 05:17:11;;;;;;;;;;;;;;;18.09;59.73;98692.88;2085027;28;19971;-65
2024/01/09 05:18:12;;;;;;;;;;;;;;;18.09;60.00;98687.50;2084611;28;20041;-66
2024/01/09 05:19:15;;;;;;;;;;;;;;;18.11;59.71;98690.00;2087654;28;20030;-65